sensor_id;sensor_type;location;lat;lon;timestamp;pressure;altitude;pressure_sealevel;temperature;humidity
7768;BME280;3928;42.626;23.382;2023-10-08T00:02:03;94633.69;;;16.02;42.54
7768;BME280;3928;42.626;23.382;2023-10-08T00:04:34;94606.19;;;15.98;41.85
7768;BME280;3928;42.626;23.382;2023-10-08T00:07:03;94622.09;;;16.14;41.57
7768;BME280;3928;42.626;23.382;2023-10-08T00:09:32;94615.34;;;16.08;40.83
7768;BME280;3928;42.626;23.382;2023-10-08T00:12:02;94614.84;;;15.97;41.35
7768;BME280;3928;42.626;23.382;2023-10-08T00:14:29;94606.09;;;16.01;41.97
7768;BME280;3928;42.626;23.382;2023-10-08T00:16:57;94613.81;;;16.02;41.65
7768;BME280;3928;42.626;23.382;2023-10-08T00:19:25;94604.19;;;16.06;42.50
7768;BME280;3928;42.626;23.382;2023-10-08T00:22:00;94585.03;;;15.85;41.03
7768;BME280;3928;42.626;23.382;2023-10-08T00:24:33;94594.19;;;15.69;41.95
7768;BME280;3928;42.626;23.382;2023-10-08T00:27:01;94601.22;;;15.65;41.74
7768;BME280;3928;42.626;23.382;2023-10-08T00:29:32;94601.91;;;15.70;41.95
7768;BME280;3928;42.626;23.382;2023-10-08T00:31:59;94597.34;;;15.78;41.44
7768;BME280;3928;42.626;23.382;2023-10-08T00:34:37;94594.75;;;15.78;41.84
7768;BME280;3928;42.626;23.382;2023-10-08T00:37:09;94589.38;;;15.85;41.91
7768;BME280;3928;42.626;23.382;2023-10-08T00:39:39;94595.94;;;15.95;41.58
7768;BME280;3928;42.626;23.382;2023-10-08T00:42:24;94595.00;;;15.97;41.80
7768;BME280;3928;42.626;23.382;2023-10-08T00:44:53;94597.56;;;15.99;41.52
7768;BME280;3928;42.626;23.382;2023-10-08T00:47:21;94594.91;;;16.00;40.95
7768;BME280;3928;42.626;23.382;2023-10-08T00:49:51;94577.94;;;15.92;40.63
7768;BME280;3928;42.626;23.382;2023-10-08T00:52:31;94584.00;;;15.91;41.06
7768;BME280;3928;42.626;23.382;2023-10-08T00:55:08;94591.91;;;15.58;41.20
7768;BME280;3928;42.626;23.382;2023-10-08T00:57:40;94582.22;;;15.37;41.92
7768;BME280;3928;42.626;23.382;2023-10-08T01:00:10;94568.97;;;14.90;43.18
7768;BME280;3928;42.626;23.382;2023-10-08T01:02:47;94573.91;;;14.70;43.72
7768;BME280;3928;42.626;23.382;2023-10-08T01:05:20;94573.69;;;14.76;43.46
7768;BME280;3928;42.626;23.382;2023-10-08T01:08:03;94574.09;;;14.91;42.89
7768;BME280;3928;42.626;23.382;2023-10-08T01:13:26;94577.06;;;15.09;42.72
7768;BME280;3928;42.626;23.382;2023-10-08T01:16:00;94574.31;;;15.13;42.13
7768;BME280;3928;42.626;23.382;2023-10-08T01:18:27;94567.47;;;15.12;42.85
7768;BME280;3928;42.626;23.382;2023-10-08T01:20:58;94568.88;;;15.23;43.40
7768;BME280;3928;42.626;23.382;2023-10-08T01:23:34;94573.56;;;15.38;44.06
7768;BME280;3928;42.626;23.382;2023-10-08T01:26:02;94570.03;;;15.42;43.55
7768;BME280;3928;42.626;23.382;2023-10-08T01:28:40;94569.75;;;15.51;42.81
7768;BME280;3928;42.626;23.382;2023-10-08T01:31:09;94567.72;;;15.59;43.17
7768;BME280;3928;42.626;23.382;2023-10-08T01:33:38;94581.25;;;15.69;43.48
7768;BME280;3928;42.626;23.382;2023-10-08T01:36:12;94577.09;;;15.65;42.50
7768;BME280;3928;42.626;23.382;2023-10-08T01:38:41;94575.50;;;15.59;42.63
7768;BME280;3928;42.626;23.382;2023-10-08T01:41:08;94561.16;;;15.49;43.02
7768;BME280;3928;42.626;23.382;2023-10-08T01:43:44;94581.41;;;15.64;43.81
7768;BME280;3928;42.626;23.382;2023-10-08T01:46:11;94579.69;;;15.65;42.98
7768;BME280;3928;42.626;23.382;2023-10-08T01:48:38;94580.53;;;15.65;44.07
7768;BME280;3928;42.626;23.382;2023-10-08T01:51:07;94581.31;;;15.67;43.68
7768;BME280;3928;42.626;23.382;2023-10-08T01:53:37;94569.91;;;15.73;44.52
7768;BME280;3928;42.626;23.382;2023-10-08T01:56:06;94576.03;;;15.70;43.35
7768;BME280;3928;42.626;23.382;2023-10-08T01:58:33;94576.22;;;15.36;42.64
7768;BME280;3928;42.626;23.382;2023-10-08T02:01:00;94579.59;;;15.10;43.46
7768;BME280;3928;42.626;23.382;2023-10-08T02:03:27;94585.13;;;14.69;44.45
7768;BME280;3928;42.626;23.382;2023-10-08T02:05:54;94579.13;;;14.67;44.30
7768;BME280;3928;42.626;23.382;2023-10-08T02:08:24;94574.41;;;14.17;45.59
7768;BME280;3928;42.626;23.382;2023-10-08T02:10:52;94579.28;;;14.28;45.94
7768;BME280;3928;42.626;23.382;2023-10-08T02:13:20;94572.69;;;14.18;46.08
7768;BME280;3928;42.626;23.382;2023-10-08T02:15:49;94583.81;;;14.20;46.92
7768;BME280;3928;42.626;23.382;2023-10-08T02:18:17;94575.91;;;14.26;46.85
7768;BME280;3928;42.626;23.382;2023-10-08T02:20:44;94565.75;;;14.20;46.76
7768;BME280;3928;42.626;23.382;2023-10-08T02:23:11;94579.94;;;14.36;46.82
7768;BME280;3928;42.626;23.382;2023-10-08T02:25:38;94570.56;;;14.33;46.60
7768;BME280;3928;42.626;23.382;2023-10-08T02:28:06;94564.38;;;14.39;45.82
7768;BME280;3928;42.626;23.382;2023-10-08T02:30:36;94563.91;;;14.56;46.51
7768;BME280;3928;42.626;23.382;2023-10-08T02:33:04;94559.84;;;14.49;44.87
7768;BME280;3928;42.626;23.382;2023-10-08T02:35:39;94551.88;;;14.56;45.05
7768;BME280;3928;42.626;23.382;2023-10-08T02:38:08;94558.69;;;14.59;46.29
7768;BME280;3928;42.626;23.382;2023-10-08T02:40:37;94554.88;;;14.40;45.27
7768;BME280;3928;42.626;23.382;2023-10-08T02:43:10;94554.22;;;14.33;45.86
7768;BME280;3928;42.626;23.382;2023-10-08T02:45:38;94546.25;;;14.41;46.24
7768;BME280;3928;42.626;23.382;2023-10-08T02:48:06;94562.63;;;14.40;45.39
7768;BME280;3928;42.626;23.382;2023-10-08T02:50:37;94552.22;;;14.43;45.76
7768;BME280;3928;42.626;23.382;2023-10-08T02:53:06;94546.44;;;14.34;46.04
7768;BME280;3928;42.626;23.382;2023-10-08T02:55:36;94557.75;;;14.29;45.93
7768;BME280;3928;42.626;23.382;2023-10-08T02:58:07;94539.91;;;14.21;45.19
7768;BME280;3928;42.626;23.382;2023-10-08T03:00:38;94570.78;;;14.24;46.02
7768;BME280;3928;42.626;23.382;2023-10-08T03:03:06;94561.22;;;14.28;46.17
7768;BME280;3928;42.626;23.382;2023-10-08T03:05:41;94531.94;;;13.98;46.69
7768;BME280;3928;42.626;23.382;2023-10-08T03:08:09;94558.53;;;14.32;47.31
7768;BME280;3928;42.626;23.382;2023-10-08T03:10:37;94568.38;;;14.51;47.52
7768;BME280;3928;42.626;23.382;2023-10-08T03:13:05;94542.50;;;14.52;47.45
7768;BME280;3928;42.626;23.382;2023-10-08T03:15:35;94557.41;;;14.74;46.55
7768;BME280;3928;42.626;23.382;2023-10-08T03:18:13;94548.66;;;14.78;44.94
7768;BME280;3928;42.626;23.382;2023-10-08T03:20:41;94553.47;;;14.60;46.04
7768;BME280;3928;42.626;23.382;2023-10-08T03:23:12;94551.00;;;14.25;45.96
7768;BME280;3928;42.626;23.382;2023-10-08T03:25:51;94551.31;;;14.13;48.47
7768;BME280;3928;42.626;23.382;2023-10-08T03:28:22;94549.00;;;14.02;49.24
7768;BME280;3928;42.626;23.382;2023-10-08T03:30:53;94546.56;;;13.97;49.66
7768;BME280;3928;42.626;23.382;2023-10-08T03:33:30;94557.56;;;14.04;49.84
7768;BME280;3928;42.626;23.382;2023-10-08T03:36:00;94548.16;;;14.01;49.76
7768;BME280;3928;42.626;23.382;2023-10-08T03:38:34;94541.88;;;14.12;50.00
7768;BME280;3928;42.626;23.382;2023-10-08T03:41:10;94550.06;;;14.27;50.27
7768;BME280;3928;42.626;23.382;2023-10-08T03:43:42;94554.97;;;14.37;50.44
7768;BME280;3928;42.626;23.382;2023-10-08T03:46:18;94546.94;;;14.49;50.43
7768;BME280;3928;42.626;23.382;2023-10-08T03:48:48;94546.81;;;14.52;49.94
7768;BME280;3928;42.626;23.382;2023-10-08T03:51:16;94547.94;;;14.42;47.93
7768;BME280;3928;42.626;23.382;2023-10-08T03:53:46;94541.09;;;14.41;47.47
7768;BME280;3928;42.626;23.382;2023-10-08T03:56:25;94543.50;;;14.48;47.57
7768;BME280;3928;42.626;23.382;2023-10-08T03:58:55;94535.59;;;14.53;47.37
7768;BME280;3928;42.626;23.382;2023-10-08T04:01:26;94533.25;;;14.45;46.94
7768;BME280;3928;42.626;23.382;2023-10-08T04:03:58;94529.81;;;14.43;48.11
7768;BME280;3928;42.626;23.382;2023-10-08T04:06:27;94528.97;;;14.43;47.81
7768;BME280;3928;42.626;23.382;2023-10-08T04:09:04;94522.22;;;14.39;48.53
7768;BME280;3928;42.626;23.382;2023-10-08T04:11:50;94524.66;;;14.43;48.09
7768;BME280;3928;42.626;23.382;2023-10-08T04:14:22;94530.09;;;14.34;47.42
7768;BME280;3928;42.626;23.382;2023-10-08T04:16:50;94524.44;;;14.21;47.22
7768;BME280;3928;42.626;23.382;2023-10-08T04:19:20;94516.44;;;14.29;47.94
7768;BME280;3928;42.626;23.382;2023-10-08T04:21:52;94520.72;;;14.30;48.80
7768;BME280;3928;42.626;23.382;2023-10-08T04:24:21;94515.31;;;14.39;49.95
7768;BME280;3928;42.626;23.382;2023-10-08T04:26:57;94523.78;;;14.44;49.70
7768;BME280;3928;42.626;23.382;2023-10-08T04:29:24;94529.78;;;14.46;48.94
7768;BME280;3928;42.626;23.382;2023-10-08T04:31:52;94529.91;;;14.40;47.73
7768;BME280;3928;42.626;23.382;2023-10-08T04:34:29;94530.00;;;14.37;48.91
7768;BME280;3928;42.626;23.382;2023-10-08T04:36:58;94533.50;;;14.03;48.93
7768;BME280;3928;42.626;23.382;2023-10-08T04:39:26;94523.56;;;13.88;49.22
7768;BME280;3928;42.626;23.382;2023-10-08T04:41:58;94523.66;;;13.85;49.69
7768;BME280;3928;42.626;23.382;2023-10-08T04:44:31;94531.13;;;13.94;49.98
7768;BME280;3928;42.626;23.382;2023-10-08T04:46:59;94520.25;;;13.83;49.78
7768;BME280;3928;42.626;23.382;2023-10-08T04:49:32;94526.59;;;13.70;50.36
7768;BME280;3928;42.626;23.382;2023-10-08T04:52:01;94537.72;;;13.38;51.29
7768;BME280;3928;42.626;23.382;2023-10-08T04:54:34;94524.84;;;13.36;54.08
7768;BME280;3928;42.626;23.382;2023-10-08T04:57:06;94517.97;;;13.71;63.72
7768;BME280;3928;42.626;23.382;2023-10-08T04:59:41;94530.88;;;14.05;52.71
7768;BME280;3928;42.626;23.382;2023-10-08T05:02:08;94533.91;;;14.21;51.70
7768;BME280;3928;42.626;23.382;2023-10-08T05:05:00;94536.44;;;14.53;60.82
7768;BME280;3928;42.626;23.382;2023-10-08T05:07:56;94537.88;;;14.63;51.64
7768;BME280;3928;42.626;23.382;2023-10-08T05:10:43;94536.91;;;14.68;49.49
7768;BME280;3928;42.626;23.382;2023-10-08T05:13:40;94537.00;;;14.65;49.47
7768;BME280;3928;42.626;23.382;2023-10-08T05:16:22;94545.84;;;14.56;49.84
7768;BME280;3928;42.626;23.382;2023-10-08T05:19:02;94542.97;;;14.67;53.15
7768;BME280;3928;42.626;23.382;2023-10-08T05:21:52;94545.34;;;15.02;53.19
7768;BME280;3928;42.626;23.382;2023-10-08T05:24:31;94547.41;;;15.20;49.48
7768;BME280;3928;42.626;23.382;2023-10-08T05:27:06;94544.06;;;15.45;49.94
7768;BME280;3928;42.626;23.382;2023-10-08T05:30:03;94534.03;;;15.62;47.12
7768;BME280;3928;42.626;23.382;2023-10-08T05:32:43;94547.94;;;15.58;49.24
7768;BME280;3928;42.626;23.382;2023-10-08T05:35:32;94543.28;;;15.96;46.75
7768;BME280;3928;42.626;23.382;2023-10-08T05:38:22;94555.00;;;16.06;47.22
7768;BME280;3928;42.626;23.382;2023-10-08T05:40:49;94556.56;;;16.36;51.16
7768;BME280;3928;42.626;23.382;2023-10-08T05:43:42;94558.66;;;16.75;48.56
7768;BME280;3928;42.626;23.382;2023-10-08T05:46:26;94557.91;;;17.18;49.43
7768;BME280;3928;42.626;23.382;2023-10-08T05:49:12;94545.31;;;17.31;47.72
7768;BME280;3928;42.626;23.382;2023-10-08T05:51:52;94562.38;;;17.59;45.42
7768;BME280;3928;42.626;23.382;2023-10-08T05:54:37;94555.13;;;17.23;42.98
7768;BME280;3928;42.626;23.382;2023-10-08T05:57:23;94548.22;;;17.00;44.87
7768;BME280;3928;42.626;23.382;2023-10-08T06:00:05;94562.25;;;17.18;45.50
7768;BME280;3928;42.626;23.382;2023-10-08T06:02:55;94569.19;;;17.39;44.12
7768;BME280;3928;42.626;23.382;2023-10-08T06:05:35;94561.66;;;17.33;43.26
7768;BME280;3928;42.626;23.382;2023-10-08T06:08:09;94558.75;;;17.19;44.99
7768;BME280;3928;42.626;23.382;2023-10-08T06:10:41;94562.41;;;17.13;44.01
7768;BME280;3928;42.626;23.382;2023-10-08T06:13:10;94559.72;;;17.38;48.02
7768;BME280;3928;42.626;23.382;2023-10-08T06:15:43;94556.13;;;17.64;43.94
7768;BME280;3928;42.626;23.382;2023-10-08T06:18:14;94541.78;;;17.98;44.59
7768;BME280;3928;42.626;23.382;2023-10-08T06:20:41;94556.47;;;18.19;43.12
7768;BME280;3928;42.626;23.382;2023-10-08T06:23:09;94541.34;;;18.49;43.84
7768;BME280;3928;42.626;23.382;2023-10-08T06:25:38;94549.91;;;18.72;41.89
7768;BME280;3928;42.626;23.382;2023-10-08T06:28:16;94554.63;;;19.01;43.72
7768;BME280;3928;42.626;23.382;2023-10-08T06:30:45;94529.31;;;19.23;44.49
7768;BME280;3928;42.626;23.382;2023-10-08T06:33:12;94557.75;;;19.66;40.51
7768;BME280;3928;42.626;23.382;2023-10-08T06:35:39;94556.41;;;19.93;42.51
7768;BME280;3928;42.626;23.382;2023-10-08T06:38:10;94561.69;;;20.09;39.76
7768;BME280;3928;42.626;23.382;2023-10-08T06:40:37;94549.59;;;20.25;39.92
7768;BME280;3928;42.626;23.382;2023-10-08T06:43:07;94573.91;;;20.26;38.04
7768;BME280;3928;42.626;23.382;2023-10-08T06:45:53;94544.69;;;20.36;39.68
7768;BME280;3928;42.626;23.382;2023-10-08T06:48:24;94552.19;;;20.08;38.51
7768;BME280;3928;42.626;23.382;2023-10-08T06:50:52;94555.63;;;19.91;39.39
7768;BME280;3928;42.626;23.382;2023-10-08T06:53:23;94541.28;;;20.00;40.45
7768;BME280;3928;42.626;23.382;2023-10-08T06:55:50;94542.06;;;20.19;39.77
7768;BME280;3928;42.626;23.382;2023-10-08T06:58:22;94517.41;;;20.43;39.93
7768;BME280;3928;42.626;23.382;2023-10-08T07:00:51;94544.53;;;20.90;39.74
7768;BME280;3928;42.626;23.382;2023-10-08T07:03:21;94526.81;;;21.12;39.16
7768;BME280;3928;42.626;23.382;2023-10-08T07:05:51;94541.75;;;21.57;39.55
7768;BME280;3928;42.626;23.382;2023-10-08T07:08:26;94539.69;;;21.94;38.05
7768;BME280;3928;42.626;23.382;2023-10-08T07:10:54;94485.88;;;21.90;37.89
7768;BME280;3928;42.626;23.382;2023-10-08T07:13:22;94532.38;;;22.45;36.67
7768;BME280;3928;42.626;23.382;2023-10-08T07:15:50;94526.22;;;22.60;36.98
7768;BME280;3928;42.626;23.382;2023-10-08T07:18:17;94536.16;;;22.84;36.86
7768;BME280;3928;42.626;23.382;2023-10-08T07:20:52;94544.69;;;23.01;36.11
7768;BME280;3928;42.626;23.382;2023-10-08T07:23:26;94306.34;;;21.78;36.37
7768;BME280;3928;42.626;23.382;2023-10-08T07:25:55;94543.34;;;23.37;35.82
7768;BME280;3928;42.626;23.382;2023-10-08T07:28:27;94530.00;;;23.54;34.77
7768;BME280;3928;42.626;23.382;2023-10-08T07:30:55;94524.69;;;23.70;33.61
7768;BME280;3928;42.626;23.382;2023-10-08T07:33:23;94517.50;;;23.86;34.28
7768;BME280;3928;42.626;23.382;2023-10-08T07:35:59;94524.25;;;24.03;33.86
7768;BME280;3928;42.626;23.382;2023-10-08T07:38:37;94513.72;;;24.17;33.72
7768;BME280;3928;42.626;23.382;2023-10-08T07:41:04;94515.34;;;24.45;33.54
7768;BME280;3928;42.626;23.382;2023-10-08T07:43:31;94512.22;;;24.66;32.97
7768;BME280;3928;42.626;23.382;2023-10-08T07:45:59;94506.66;;;24.70;32.39
7768;BME280;3928;42.626;23.382;2023-10-08T07:48:26;94507.19;;;24.88;33.22
7768;BME280;3928;42.626;23.382;2023-10-08T07:50:55;94511.59;;;25.00;32.57
7768;BME280;3928;42.626;23.382;2023-10-08T07:53:24;94505.28;;;25.16;31.85
7768;BME280;3928;42.626;23.382;2023-10-08T07:56:03;94499.16;;;25.28;31.30
7768;BME280;3928;42.626;23.382;2023-10-08T07:58:32;94497.59;;;25.25;31.39
7768;BME280;3928;42.626;23.382;2023-10-08T08:01:03;94498.63;;;25.35;32.40
7768;BME280;3928;42.626;23.382;2023-10-08T08:03:32;94493.22;;;25.50;32.08
7768;BME280;3928;42.626;23.382;2023-10-08T08:06:02;94497.69;;;25.73;31.33
7768;BME280;3928;42.626;23.382;2023-10-08T08:08:33;94500.41;;;25.96;30.48
7768;BME280;3928;42.626;23.382;2023-10-08T08:11:01;94475.31;;;26.03;31.32
7768;BME280;3928;42.626;23.382;2023-10-08T08:13:31;94492.03;;;26.26;30.41
7768;BME280;3928;42.626;23.382;2023-10-08T08:15:59;94486.84;;;26.48;30.61
7768;BME280;3928;42.626;23.382;2023-10-08T08:18:36;94485.47;;;26.66;30.48
7768;BME280;3928;42.626;23.382;2023-10-08T08:21:03;94476.34;;;26.70;29.86
7768;BME280;3928;42.626;23.382;2023-10-08T08:23:30;94472.78;;;26.83;29.23
7768;BME280;3928;42.626;23.382;2023-10-08T08:25:59;94467.03;;;27.00;29.24
7768;BME280;3928;42.626;23.382;2023-10-08T08:28:39;94464.66;;;27.19;29.37
7768;BME280;3928;42.626;23.382;2023-10-08T08:31:06;94448.94;;;27.29;28.21
7768;BME280;3928;42.626;23.382;2023-10-08T08:33:42;94459.22;;;27.43;26.88
7768;BME280;3928;42.626;23.382;2023-10-08T08:36:26;94457.91;;;27.49;27.13
7768;BME280;3928;42.626;23.382;2023-10-08T08:38:54;94456.56;;;27.65;26.07
7768;BME280;3928;42.626;23.382;2023-10-08T08:41:22;94449.91;;;27.82;26.10
7768;BME280;3928;42.626;23.382;2023-10-08T08:43:51;94446.31;;;27.83;24.23
7768;BME280;3928;42.626;23.382;2023-10-08T08:46:28;94437.22;;;27.76;23.42
7768;BME280;3928;42.626;23.382;2023-10-08T08:49:00;94436.88;;;28.02;25.31
7768;BME280;3928;42.626;23.382;2023-10-08T08:51:28;94442.00;;;28.35;25.06
7768;BME280;3928;42.626;23.382;2023-10-08T08:53:56;94435.06;;;28.65;23.93
7768;BME280;3928;42.626;23.382;2023-10-08T08:56:28;94436.50;;;28.90;22.77
7768;BME280;3928;42.626;23.382;2023-10-08T08:58:57;94440.13;;;28.98;23.00
7768;BME280;3928;42.626;23.382;2023-10-08T09:01:26;94430.56;;;29.07;21.86
7768;BME280;3928;42.626;23.382;2023-10-08T09:03:58;94433.91;;;29.09;23.41
7768;BME280;3928;42.626;23.382;2023-10-08T09:06:26;94419.59;;;29.11;24.34
7768;BME280;3928;42.626;23.382;2023-10-08T09:08:53;94436.00;;;29.05;22.46
7768;BME280;3928;42.626;23.382;2023-10-08T09:11:40;94428.78;;;28.87;22.30
7768;BME280;3928;42.626;23.382;2023-10-08T09:14:08;94428.22;;;28.83;22.68
7768;BME280;3928;42.626;23.382;2023-10-08T09:16:36;94417.97;;;28.59;23.75
7768;BME280;3928;42.626;23.382;2023-10-08T09:19:03;94431.38;;;28.46;23.03
7768;BME280;3928;42.626;23.382;2023-10-08T09:21:37;94425.34;;;28.03;22.69
7768;BME280;3928;42.626;23.382;2023-10-08T09:24:04;94420.66;;;27.85;23.54
7768;BME280;3928;42.626;23.382;2023-10-08T09:26:36;94421.19;;;27.68;23.47
7768;BME280;3928;42.626;23.382;2023-10-08T09:29:06;94425.81;;;27.32;24.10
7768;BME280;3928;42.626;23.382;2023-10-08T09:31:34;94417.34;;;27.18;24.50
7768;BME280;3928;42.626;23.382;2023-10-08T09:34:03;94400.94;;;26.92;24.45
7768;BME280;3928;42.626;23.382;2023-10-08T09:36:31;94423.44;;;26.73;24.33
7768;BME280;3928;42.626;23.382;2023-10-08T09:39:00;94416.69;;;26.24;24.49
7768;BME280;3928;42.626;23.382;2023-10-08T09:41:31;94414.03;;;26.13;25.74
7768;BME280;3928;42.626;23.382;2023-10-08T09:43:58;94412.41;;;25.64;25.39
7768;BME280;3928;42.626;23.382;2023-10-08T09:46:30;94407.69;;;25.81;25.42
7768;BME280;3928;42.626;23.382;2023-10-08T09:49:00;94411.75;;;26.09;25.41
7768;BME280;3928;42.626;23.382;2023-10-08T09:51:29;94402.88;;;26.45;26.08
7768;BME280;3928;42.626;23.382;2023-10-08T09:54:03;94388.75;;;26.91;24.86
7768;BME280;3928;42.626;23.382;2023-10-08T09:56:36;94398.09;;;27.06;23.88
7768;BME280;3928;42.626;23.382;2023-10-08T09:59:05;94405.13;;;26.94;24.14
7768;BME280;3928;42.626;23.382;2023-10-08T10:01:34;94389.44;;;27.26;25.49
7768;BME280;3928;42.626;23.382;2023-10-08T10:04:06;94323.69;;;27.25;24.64
7768;BME280;3928;42.626;23.382;2023-10-08T10:06:33;94380.19;;;27.64;23.45
7768;BME280;3928;42.626;23.382;2023-10-08T10:09:01;94367.41;;;27.59;24.78
7768;BME280;3928;42.626;23.382;2023-10-08T10:11:32;94370.00;;;27.71;23.66
7768;BME280;3928;42.626;23.382;2023-10-08T10:14:01;94375.22;;;27.50;23.84
7768;BME280;3928;42.626;23.382;2023-10-08T10:16:28;94374.63;;;27.78;24.65
7768;BME280;3928;42.626;23.382;2023-10-08T10:18:57;94364.94;;;28.20;24.09
7768;BME280;3928;42.626;23.382;2023-10-08T10:21:34;94367.81;;;28.38;23.28
7768;BME280;3928;42.626;23.382;2023-10-08T10:24:01;94360.69;;;28.60;23.17
7768;BME280;3928;42.626;23.382;2023-10-08T10:26:32;94356.41;;;28.59;23.50
7768;BME280;3928;42.626;23.382;2023-10-08T10:29:22;94360.44;;;28.93;24.07
7768;BME280;3928;42.626;23.382;2023-10-08T10:31:52;94364.41;;;29.28;22.94
7768;BME280;3928;42.626;23.382;2023-10-08T10:34:22;94354.59;;;29.49;22.24
7768;BME280;3928;42.626;23.382;2023-10-08T10:36:53;94354.22;;;29.23;22.62
7768;BME280;3928;42.626;23.382;2023-10-08T10:39:28;94341.38;;;29.49;22.57
7768;BME280;3928;42.626;23.382;2023-10-08T10:42:00;94341.50;;;29.67;22.67
7768;BME280;3928;42.626;23.382;2023-10-08T10:44:29;94333.41;;;29.78;22.54
7768;BME280;3928;42.626;23.382;2023-10-08T10:46:57;94334.00;;;29.53;22.75
7768;BME280;3928;42.626;23.382;2023-10-08T10:49:42;94335.91;;;29.99;23.00
7768;BME280;3928;42.626;23.382;2023-10-08T10:52:19;94329.63;;;30.00;23.62
7768;BME280;3928;42.626;23.382;2023-10-08T10:54:59;94309.63;;;30.44;23.90
7768;BME280;3928;42.626;23.382;2023-10-08T10:57:44;94309.22;;;30.76;23.54
7768;BME280;3928;42.626;23.382;2023-10-08T11:00:11;94319.34;;;31.08;21.99
7768;BME280;3928;42.626;23.382;2023-10-08T11:03:05;94316.47;;;31.02;23.58
7768;BME280;3928;42.626;23.382;2023-10-08T11:05:44;94321.78;;;30.74;21.88
7768;BME280;3928;42.626;23.382;2023-10-08T11:08:15;94325.94;;;30.77;23.07
7768;BME280;3928;42.626;23.382;2023-10-08T11:10:44;94310.75;;;30.79;22.33
7768;BME280;3928;42.626;23.382;2023-10-08T11:13:17;94315.41;;;30.95;24.19
7768;BME280;3928;42.626;23.382;2023-10-08T11:15:46;94305.34;;;31.26;24.34
7768;BME280;3928;42.626;23.382;2023-10-08T11:18:16;94321.28;;;31.16;22.68
7768;BME280;3928;42.626;23.382;2023-10-08T11:20:45;94325.16;;;31.22;21.99
7768;BME280;3928;42.626;23.382;2023-10-08T11:23:31;94306.00;;;31.46;23.15
7768;BME280;3928;42.626;23.382;2023-10-08T11:25:59;94305.78;;;31.21;22.58
7768;BME280;3928;42.626;23.382;2023-10-08T11:28:28;94310.94;;;31.40;21.89
7768;BME280;3928;42.626;23.382;2023-10-08T11:30:55;94295.78;;;31.33;22.58
7768;BME280;3928;42.626;23.382;2023-10-08T11:33:24;94297.38;;;31.26;22.23
7768;BME280;3928;42.626;23.382;2023-10-08T11:35:58;94304.97;;;31.38;22.60
7768;BME280;3928;42.626;23.382;2023-10-08T11:38:25;94301.25;;;31.04;22.98
7768;BME280;3928;42.626;23.382;2023-10-08T11:40:54;94299.53;;;30.67;23.59
7768;BME280;3928;42.626;23.382;2023-10-08T11:43:23;94278.44;;;30.28;24.09
7768;BME280;3928;42.626;23.382;2023-10-08T11:45:51;94291.91;;;29.98;24.23
7768;BME280;3928;42.626;23.382;2023-10-08T11:48:18;94300.91;;;30.05;25.23
7768;BME280;3928;42.626;23.382;2023-10-08T11:50:53;94312.41;;;29.77;24.16
7768;BME280;3928;42.626;23.382;2023-10-08T11:53:24;94301.06;;;28.97;25.13
7768;BME280;3928;42.626;23.382;2023-10-08T11:55:51;94291.31;;;28.88;25.97
7768;BME280;3928;42.626;23.382;2023-10-08T11:58:22;94280.16;;;28.84;25.56
7768;BME280;3928;42.626;23.382;2023-10-08T12:01:02;94284.28;;;28.68;25.91
7768;BME280;3928;42.626;23.382;2023-10-08T12:03:30;94273.81;;;28.47;25.78
7768;BME280;3928;42.626;23.382;2023-10-08T12:05:57;94287.84;;;28.47;26.72
7768;BME280;3928;42.626;23.382;2023-10-08T12:08:27;94270.84;;;28.40;26.47
7768;BME280;3928;42.626;23.382;2023-10-08T12:10:55;94285.16;;;28.17;26.55
7768;BME280;3928;42.626;23.382;2023-10-08T12:13:22;94284.56;;;28.04;26.56
7768;BME280;3928;42.626;23.382;2023-10-08T12:15:51;94289.78;;;27.94;27.00
7768;BME280;3928;42.626;23.382;2023-10-08T12:18:18;94285.88;;;27.88;26.87
7768;BME280;3928;42.626;23.382;2023-10-08T12:20:50;94294.75;;;27.66;26.81
7768;BME280;3928;42.626;23.382;2023-10-08T12:23:18;94277.94;;;27.88;27.28
7768;BME280;3928;42.626;23.382;2023-10-08T12:25:52;94291.50;;;27.63;26.92
7768;BME280;3928;42.626;23.382;2023-10-08T12:28:21;94285.81;;;27.79;28.34
7768;BME280;3928;42.626;23.382;2023-10-08T12:30:49;94263.81;;;27.68;27.34
7768;BME280;3928;42.626;23.382;2023-10-08T12:33:17;94272.81;;;27.87;26.81
7768;BME280;3928;42.626;23.382;2023-10-08T12:35:46;94290.38;;;28.59;26.61
7768;BME280;3928;42.626;23.382;2023-10-08T12:38:13;94279.81;;;28.59;26.68
7768;BME280;3928;42.626;23.382;2023-10-08T12:40:40;94288.25;;;28.43;27.13
7768;BME280;3928;42.626;23.382;2023-10-08T12:43:19;94286.56;;;28.82;26.12
7768;BME280;3928;42.626;23.382;2023-10-08T12:45:47;94272.28;;;28.94;26.18
7768;BME280;3928;42.626;23.382;2023-10-08T12:48:21;94278.56;;;29.03;25.64
7768;BME280;3928;42.626;23.382;2023-10-08T12:50:48;94285.25;;;29.65;25.92
7768;BME280;3928;42.626;23.382;2023-10-08T12:53:22;94259.50;;;29.77;25.38
7768;BME280;3928;42.626;23.382;2023-10-08T12:55:53;94222.53;;;29.94;25.14
7768;BME280;3928;42.626;23.382;2023-10-08T12:58:23;94277.63;;;30.18;25.29
7768;BME280;3928;42.626;23.382;2023-10-08T13:00:52;94272.88;;;30.69;25.15
7768;BME280;3928;42.626;23.382;2023-10-08T13:03:24;94274.41;;;30.34;24.54
7768;BME280;3928;42.626;23.382;2023-10-08T13:05:56;94283.75;;;30.19;25.44
7768;BME280;3928;42.626;23.382;2023-10-08T13:08:29;94277.47;;;29.73;24.86
7768;BME280;3928;42.626;23.382;2023-10-08T13:10:56;94283.41;;;29.07;25.48
7768;BME280;3928;42.626;23.382;2023-10-08T13:13:28;94276.25;;;28.79;26.02
7768;BME280;3928;42.626;23.382;2023-10-08T13:15:55;94272.06;;;28.76;27.17
7768;BME280;3928;42.626;23.382;2023-10-08T13:18:27;94247.94;;;29.00;27.38
7768;BME280;3928;42.626;23.382;2023-10-08T13:20:54;94246.41;;;29.07;25.83
7768;BME280;3928;42.626;23.382;2023-10-08T13:23:21;94254.88;;;29.79;26.14
7768;BME280;3928;42.626;23.382;2023-10-08T13:25:49;94251.59;;;30.23;26.26
7768;BME280;3928;42.626;23.382;2023-10-08T13:28:20;94248.00;;;30.97;24.48
7768;BME280;3928;42.626;23.382;2023-10-08T13:30:49;94246.06;;;31.35;23.46
7768;BME280;3928;42.626;23.382;2023-10-08T13:33:19;94253.72;;;31.56;23.32
7768;BME280;3928;42.626;23.382;2023-10-08T13:35:47;94252.13;;;31.45;25.03
7768;BME280;3928;42.626;23.382;2023-10-08T13:38:16;94251.88;;;32.26;23.96